Singapore Changi Airport

METAR WSSS TAF WSSS
30 °C
°C
-
°C
8m
Età
07:08:27
LT
06:08
UTC
0 ft

4.000

8.000

12.000

16.000

20.000

FEW 2.000
BKN 14.000
VFR
<?= Yii::t('app', 'Wind direction') ?> <?= Yii::t('app', 'of'); ?>
010°
19:19
Tramonto
75%
Umidità
Taglio del vento
Chiuso/Neve
Raggio visivo RWY
Condizione della RWY
Visibilità verticale
Visibilità minima
CAVOK
Tendenza
Correzione
Rapporto speciale
1008 hPa
QNH
METAR WSSS 030600Z 01010KT 9999 FEW020 BKN140 30/25 Q1008 NOSIG
Copertura con squarci
2 kt
2 kt
14:00
VFR
8 kt
15:00
IFR
8 kt
16:00
IFR
8 kt
17:00
IFR
8 kt
18:00
IFR
8 kt
19:00
VFR
8 kt
20:00
VFR
8 kt
10 km+
Vista
14.000 ft
Base nuvolosa
10 kt
Vento
metar-taf.com/WSSS

Metar-Taf.com

Decodificatore visivo

Noi e le terze parti seguiamo il tuo comportamento su internet con i cookie. Se continui, riteniamo che tu sia d'accordo con la nostra Politica sui cookie.